WEATHER DATA

YESTERDAY
Time Temp. Dewp. Hum. Wind dir Wind speed Wind gust Bar.
00:04 14.3 9.3 72 41 0.3 1.1 1013.8
00:15 14.2 9.2 72 40 0.3 1.1 1013.7
00:24 14.1 9.1 72 41 0.3 1.1 1013.7
00:34 14 9 72 45 0.3 1.1 1013.6
00:44 13.9 8.9 72 40 0.3 1.1 1013.4
00:55 13.8 8.8 72 45 0.3 0.8 1013.4
01:04 13.7 8.7 72 45 0.3 1.1 1013.4
01:14 13.7 8.7 72 26 0.3 0.8 1013.4
01:25 13.6 8.9 73 20 0.3 1.1 1013.3
01:35 13.5 8.8 73 34 0.3 0.8 1013.3
01:44 13.4 8.7 73 45 0.3 1.1 1013.3
01:55 13.3 8.6 73 40 0.3 0.8 1013.3
02:05 13.3 8.6 73 45 0.3 1.1 1013.2
02:15 13.2 8.5 73 40 0.3 0.8 1013.2
02:25 13.1 8.4 73 45 0.3 1.1 1013.2
02:35 13.1 8.4 73 45 0.3 1.1 1013.1
02:45 13 8.3 73 23 0.3 0.8 1013.1
02:55 12.9 8.2 73 32 0.3 0.8 1013.1
03:05 12.8 8.3 74 35 0.3 0.8 1012.9
03:16 12.8 8.3 74 36 0.3 0.8 1012.9
03:25 12.7 8.2 74 45 0.3 1.1 1012.9
03:35 12.7 8.2 74 41 0.3 1.1 1012.9
03:46 12.6 8.1 74 37 0.3 1.1 1012.8
03:56 12.6 8.1 74 45 0.3 0.8 1012.7
04:05 12.5 8 74 45 0.3 1.1 1012.5
04:16 12.4 7.9 74 45 0.3 1.1 1012.3
04:26 12.4 7.9 74 48 0.3 1.1 1012.5
04:36 12.3 7.8 74 35 0.8 1.1 1012.7
04:46 12.3 7.8 74 40 0.3 0.8 1012.5
04:56 12.2 7.7 74 41 0.3 1.1 1012.5
05:06 12.1 7.6 74 25 0.3 0.8 1012.7
05:16 12 7.5 74 27 0.3 0.8 1012.7
05:26 11.9 7.4 74 35 0.3 0.8 1012.7
05:37 11.8 7.5 75 45 0.3 1.1 1012.7
05:47 11.8 7.5 75 41 0.3 1.1 1012.7
05:57 11.7 7.4 75 18 0.3 1.1 1012.8
06:07 11.6 7.3 75 40 0.3 0.8 1012.8
06:17 11.7 7.4 75 49 0.3 1.1 1012.7
06:27 11.7 7.4 75 40 0.3 0.8 1012.8
06:37 11.7 7.4 75 45 0.3 0.8 1012.7
06:48 11.8 7.5 75 90 0.3 0.8 1012.7
06:58 11.9 7.6 75 49 0.3 1.1 1012.5
07:07 12.1 8 76 0 0.8 1012.5
07:18 12.5 8.4 76 8 0.8 1.7 1012.4
07:28 13.2 9.1 76 29 1.1 2.5 1012.4
07:38 14.1 10.1 77 52 0.3 1.4 1012.7
07:48 14.8 10.8 77 90 0.3 0.8 1012.8
07:59 15.8 11.8 77 90 0.3 0.8 1012.8
08:09 16.6 12.6 77 49 0.8 1.4 1012.8
08:18 17.5 13.2 76 48 1.1 1.7 1013
08:28 18.2 13.9 76 40 1.1 2.2 1012.9
08:39 18.7 14.2 75 36 1.1 2.2 1012.7
08:49 18.9 14.4 75 43 1.1 1.7 1012.8
08:58 19.2 14.7 75 65 0.8 2.2 1012.9
09:09 19.7 15.1 75 90 0.3 1.1 1012.8
09:19 20.1 15.3 74 90 0.3 1.4 1012.8
09:29 20.5 15.7 74 90 0.3 1.4 1012.8
09:39 21 16.2 74 76 1.1 2.2 1012.9
09:49 21.4 16.6 74 54 1.1 2.2 1012.8
09:59 21.8 16.7 73 52 1.1 2.2 1012.7
10:09 22.2 17.1 73 61 1.1 2.5 1012.5
10:19 22.6 17.5 73 51 1.1 3.1 1012.8
10:29 22.9 17.6 72 45 0.8 2.2 1012.9
10:39 23.3 18 72 90 0.3 1.4 1012.8
10:49 23.5 18.2 72 35 0.8 1.7 1012.9
10:59 23.6 18 71 45 0.8 2.2 1013.1
11:09 23.7 18.1 71 90 0.3 2.2 1013
11:19 23.9 18.3 71 56 0.3 1.1 1012.9
11:30 24.6 19 71 108 0.8 1.4 1012.8
11:39 24.9 19.1 70 48 1.1 2.8 1012.5
11:49 25.1 19.2 70 61 0.8 2.2 1012.5
12:00 25.3 19.4 70 54 1.4 2.8 1012.5
12:10 25.6 19.5 69 50 1.4 3.6 1012.7
12:19 26.1 20 69 51 1.1 2.8 1012.3
12:29 26.6 20.4 69 54 1.1 3.9 1012.3
12:40 26.9 20.5 68 70 0.8 1.7 1012.2
12:50 27.3 20.9 68 45 0.8 1.4 1012.1
12:59 27.7 21.3 68 42 1.1 1.7 1012
13:10 27.8 21.1 67 53 0.8 1.4 1012.1
13:20 27.8 21.1 67 53 0.8 1.7 1012
13:30 27.8 20.9 66 57 0.3 1.7 1011.9
13:39 28 21.1 66 90 0.3 1.4 1011.9
13:50 27.8 20.6 65 8 0.3 1.7 1011.7
14:00 27.5 20.1 64 23 0.8 1.4 1011.6
14:10 27.2 19.8 64 18 0.8 2.2 1011.5
14:21 27.2 19.8 64 59 0.8 1.4 1011.4
14:30 27.1 19.5 63 45 0.8 1.4 1011.4
14:40 27.2 19.5 63 35 0.8 2.2 1011.3
14:50 27.3 19.6 63 1 1.1 2.2 1011.3
15:01 27.6 19.9 63 23 0.8 2.2 1011.4
15:10 27.7 20 63 49 1.1 2.2 1011.2
15:20 28 20.3 63 3 0.8 2.2 1011.2
15:31 28.3 20.6 63 348 0.3 1.4 1011.1
15:41 28.5 20.5 62 305 1.1 2.2 1011.2
15:50 28.6 20.6 62 317 1.1 2.5 1011.1
16:00 28.4 20.2 61 345 1.1 2.2 1011.1
16:11 28.2 20 61 346 1.7 3.1 1011
16:21 28.2 20 61 346 1.4 2.8 1011
16:30 28.2 20 61 52 1.1 2.2 1010.9
16:41 28.2 19.7 60 45 1.1 1.7 1010.9
16:51 28.2 19.7 60 45 0.8 2.2 1010.9
17:01 28.2 19.7 60 54 0.8 1.4 1010.8
17:11 28.1 19.6 60 55 0.8 1.4 1010.7
17:21 27.9 19.2 59 48 1.1 1.7 1010.7
17:31 27.7 19 59 51 0.8 1.4 1010.7
17:41 27.5 19 60 49 0.8 1.7 1010.7
17:52 27.3 18.9 60 50 0.8 1.4 1010.5
18:01 27.1 18.7 60 54 0.8 1.7 1010.7
18:11 27 18.6 60 49 0.8 1.4 1010.7
18:21 26.7 18.6 61 45 0.8 1.4 1010.6
18:32 26.5 18.4 61 45 0.8 1.4 1010.6
18:41 26.2 18.1 61 45 0.8 1.4 1010.7
18:51 26 17.9 61 58 0.3 1.1 1010.6
19:02 25.8 17.7 61 90 0.3 0.8 1010.5
19:12 25.5 17.7 62 40 0.8 1.7 1010.5
19:21 25.2 17.4 62 45 0.8 1.4 1010.6
19:32 24.6 16.8 62 45 1.1 1.7 1010.6
19:42 24 16.3 62 39 0.8 1.4 1010.7
19:52 23.4 15.7 62 38 0.8 1.4 1010.6
20:01 22.7 15.1 62 34 0.8 1.4 1010.6
20:12 22.1 14.5 62 35 0.8 1.4 1010.7
20:22 21.5 14.2 63 36 0.8 1.4 1010.8
20:32 21 13.7 63 32 0.8 1.4 1010.7
20:42 20.5 13.2 63 36 0.8 1.4 1010.7
20:52 20.3 13.3 64 45 0.8 1.1 1010.6
21:02 20.1 13.1 64 45 0.8 1.1 1010.7
21:12 20.1 13.3 65 55 0.3 1.1 1010.6
21:23 20 13.2 65 45 0.8 1.1 1010.4
21:32 20 13.2 65 45 0.8 1.7 1010.5
21:42 20 13.2 65 59 0.3 0.8 1010.4
21:53 20 13.5 66 90 0.3 1.4 1010.3
22:03 20 13.5 66 90 0.3 1.1 1010.2
22:12 20 13.5 66 135 0.3 1.4 1010.2
22:22 20 13.5 66 90 0.3 1.1 1010.3
22:33 20.1 13.6 66 135 0.3 1.1 1010.2
22:43 20 13.5 66 90 0.3 1.4 1010.2
22:52 20 13.5 66 126 0.3 1.1 1010.3
23:03 19.9 13.4 66 124 0.3 1.1 1010.2
23:13 19.9 13.4 66 90 0.3 1.4 1010.2
23:23 19.9 13.6 67 90 0.3 1.1 1010.1
23:33 19.8 13.5 67 90 0.3 1.1 1010
23:43 19.8 13.5 67 126 0.3 1.1 1010.1
23:53 19.7 13.4 67 90 0.3 1.1 1010

DAY STATISTIC

2019-08-17
TEMPERATURE
AVERAGE
20.3
HIGH
28.6
15:50
LOW
11.6
06:07
PRESSURE
AVERAGE
1011.9
HIGH
1013.8
00:04
LOW
1010.0
23:33
DEWPOINT
AVERAGE
14.3
HIGH
21.3
12:59
LOW
7.3
06:07
HUMIDITY
AVERAGE
69
HIGH
77
07:38
LOW
59
17:21
WIND SPEED
AVERAGE
0.6
HIGH
1.7
16:11
WIND GUST
AVERAGE
1.5
HIGH
3.9
12:29
WIND DIRECTION
PREVAILING
NE
72%
N
7.7
NE
72.0
E
14.7
SE
3.5
S
0.0
SW
0.0
W
0.0
NW
1.4
TEMPERATURE (°C)
LOW
11.6
HIGH
28.6
AVERAGE
20.3
PRESSURE (hpa)
LOW
1010.0
HIGH
1013.8
AVERAGE
1011.9
DEVICE